createdAt,value
2022-11-05T00:01:41.424Z,6.90
2022-11-05T00:04:30.913Z,8.03
2022-11-05T00:07:19.454Z,6.35
2022-11-05T00:09:47.736Z,6.13
2022-11-05T00:12:33.832Z,6.70
2022-11-05T00:15:19.683Z,7.40
2022-11-05T00:17:46.694Z,5.37
2022-11-05T00:20:13.728Z,5.57
2022-11-05T00:22:59.556Z,5.47
2022-11-05T00:25:27.993Z,4.93
2022-11-05T00:27:55.030Z,7.20
2022-11-05T00:30:23.510Z,6.47
2022-11-05T00:32:51.132Z,6.03
2022-11-05T00:35:19.476Z,5.33
2022-11-05T00:37:50.014Z,5.37
2022-11-05T00:40:17.701Z,5.87
2022-11-05T00:43:03.337Z,5.07
2022-11-05T00:45:31.434Z,5.43
2022-11-05T00:48:17.010Z,5.47
2022-11-05T00:50:44.012Z,5.63
2022-11-05T00:53:11.287Z,4.90
2022-11-05T00:55:42.327Z,4.70
2022-11-05T00:58:12.242Z,5.30
2022-11-05T01:00:41.111Z,6.10
2022-11-05T01:03:09.843Z,4.17
2022-11-05T01:05:44.691Z,5.73
2022-11-05T01:08:12.753Z,4.87
2022-11-05T01:10:43.945Z,4.67
2022-11-05T01:13:13.112Z,4.20
2022-11-05T01:15:41.070Z,4.07
2022-11-05T01:18:08.454Z,4.40
2022-11-05T01:20:35.482Z,3.97
2022-11-05T01:23:02.510Z,3.80
2022-11-05T01:25:29.488Z,4.10
2022-11-05T01:27:56.482Z,5.63
2022-11-05T01:30:23.829Z,3.53
2022-11-05T01:32:51.006Z,4.13
2022-11-05T01:35:18.361Z,4.17
2022-11-05T01:37:45.365Z,3.60
2022-11-05T01:40:13.726Z,3.23
2022-11-05T01:42:40.693Z,3.67
2022-11-05T01:45:07.706Z,4.50
2022-11-05T01:47:57.738Z,3.50
2022-11-05T01:50:29.251Z,5.47
2022-11-05T01:53:02.151Z,7.07
2022-11-05T01:55:32.325Z,3.53
2022-11-05T01:57:59.962Z,3.77
2022-11-05T02:00:27.899Z,3.60
2022-11-05T02:02:55.032Z,3.50
2022-11-05T02:05:22.222Z,3.77
2022-11-05T02:07:49.632Z,4.03
2022-11-05T02:10:20.356Z,4.80
2022-11-05T02:12:48.451Z,3.10
2022-11-05T02:15:17.417Z,3.37
2022-11-05T02:17:44.376Z,4.60
2022-11-05T02:20:17.340Z,4.17
2022-11-05T02:22:53.280Z,3.50
2022-11-05T02:25:23.308Z,3.93
2022-11-05T02:28:02.433Z,3.20
2022-11-05T02:30:39.577Z,3.70
2022-11-05T02:33:14.038Z,3.40
2022-11-05T02:35:56.403Z,3.88
2022-11-05T02:38:23.356Z,3.83
2022-11-05T02:40:55.764Z,3.77
2022-11-05T02:43:37.826Z,3.23
2022-11-05T02:46:21.925Z,4.77
2022-11-05T02:48:58.888Z,3.53
2022-11-05T02:51:41.165Z,4.53
2022-11-05T02:54:11.134Z,4.10
2022-11-05T02:56:40.701Z,3.90
2022-11-05T02:59:07.684Z,3.57
2022-11-05T03:01:35.918Z,3.80
2022-11-05T03:04:05.028Z,5.27
2022-11-05T03:06:47.156Z,4.33
2022-11-05T03:09:20.140Z,4.22
2022-11-05T03:11:59.058Z,4.37
2022-11-05T03:14:38.391Z,4.67
2022-11-05T03:17:10.752Z,4.27
2022-11-05T03:19:41.192Z,4.27
2022-11-05T03:22:16.771Z,4.33
2022-11-05T03:24:46.857Z,4.83
2022-11-05T03:27:15.704Z,4.90
2022-11-05T03:29:51.913Z,4.57
2022-11-05T03:32:20.534Z,4.00
2022-11-05T03:34:49.098Z,4.20
2022-11-05T03:37:18.336Z,4.00
2022-11-05T03:39:50.357Z,3.97
2022-11-05T03:42:19.032Z,3.70
2022-11-05T03:44:49.013Z,4.30
2022-11-05T03:47:17.550Z,3.20
2022-11-05T03:49:49.300Z,3.93
2022-11-05T03:52:17.929Z,3.60
2022-11-05T03:54:45.347Z,4.03
2022-11-05T03:57:16.194Z,5.80
2022-11-05T03:59:44.598Z,4.83
2022-11-05T04:02:13.096Z,4.03
2022-11-05T04:04:40.429Z,5.03
2022-11-05T04:07:26.180Z,4.50
2022-11-05T04:10:12.064Z,5.17
2022-11-05T04:12:57.896Z,4.93
2022-11-05T04:15:24.859Z,6.80
2022-11-05T04:17:51.994Z,5.37
2022-11-05T04:20:37.850Z,5.80
2022-11-05T04:23:25.205Z,5.57
2022-11-05T04:25:52.383Z,7.22
2022-11-05T04:28:19.342Z,6.73
2022-11-05T04:30:46.355Z,6.80
2022-11-05T04:33:17.552Z,6.53
2022-11-05T04:35:48.262Z,8.00
2022-11-05T04:38:16.854Z,8.90
2022-11-05T04:40:44.359Z,9.13
2022-11-05T04:43:15.455Z,9.40
2022-11-05T04:45:43.083Z,10.10
2022-11-05T04:48:10.118Z,10.23
2022-11-05T04:50:37.591Z,11.10
2022-11-05T04:53:04.546Z,11.73
2022-11-05T04:55:31.633Z,11.27
2022-11-05T04:57:58.632Z,12.23
2022-11-05T05:00:25.708Z,13.90
2022-11-05T05:02:52.818Z,14.20
2022-11-05T05:05:21.381Z,18.70
2022-11-05T05:07:48.347Z,16.13
2022-11-05T05:10:15.335Z,14.73
2022-11-05T05:12:42.309Z,18.87
2022-11-05T05:15:10.163Z,16.97
2022-11-05T05:17:37.177Z,20.87
2022-11-05T05:20:23.021Z,17.20
2022-11-05T05:22:53.479Z,18.67
2022-11-05T05:25:20.794Z,19.80
2022-11-05T05:27:47.756Z,20.50
2022-11-05T05:30:14.790Z,17.23
2022-11-05T05:32:41.792Z,16.73
2022-11-05T05:35:09.016Z,19.03
2022-11-05T05:37:35.971Z,19.87
2022-11-05T05:40:02.989Z,23.23
2022-11-05T05:42:29.952Z,21.10
2022-11-05T05:44:56.929Z,19.27
2022-11-05T05:47:23.955Z,21.60
2022-11-05T05:49:50.925Z,23.07
2022-11-05T05:52:17.900Z,21.50
2022-11-05T05:54:44.970Z,21.07
2022-11-05T05:57:11.964Z,24.47
2022-11-05T05:59:38.934Z,22.33
2022-11-05T06:02:06.015Z,24.13
2022-11-05T06:04:33.141Z,25.90
2022-11-05T06:07:00.108Z,24.73
2022-11-05T06:09:27.072Z,26.30
2022-11-05T06:11:54.028Z,25.50
2022-11-05T06:14:21.008Z,25.23
2022-11-05T06:16:48.042Z,29.53
2022-11-05T06:19:15.001Z,23.83
2022-11-05T06:21:41.969Z,29.40
2022-11-05T06:24:09.239Z,28.60
2022-11-05T06:26:42.506Z,28.03
2022-11-05T06:29:10.549Z,28.33
2022-11-05T06:31:37.602Z,30.80
2022-11-05T06:34:04.718Z,25.77
2022-11-05T06:36:31.678Z,31.50
2022-11-05T06:38:58.645Z,28.90
2022-11-05T06:41:25.702Z,29.53
2022-11-05T06:43:52.738Z,30.77
2022-11-05T06:46:19.778Z,30.10
2022-11-05T06:48:47.793Z,33.67
2022-11-05T06:51:15.325Z,31.10
2022-11-05T06:53:42.447Z,33.63
2022-11-05T06:56:09.812Z,33.47
2022-11-05T06:58:36.841Z,26.70
2022-11-05T07:01:08.486Z,31.53
2022-11-05T07:03:36.152Z,32.10
2022-11-05T07:06:04.248Z,25.57
2022-11-05T07:08:32.385Z,25.87
2022-11-05T07:10:59.610Z,24.07
2022-11-05T07:13:26.848Z,26.13
2022-11-05T07:15:53.990Z,22.90
2022-11-05T07:18:21.193Z,21.37
2022-11-05T07:20:49.082Z,22.67
2022-11-05T07:23:16.386Z,26.10
2022-11-05T07:25:43.490Z,24.30
2022-11-05T07:28:10.829Z,24.73
2022-11-05T07:30:37.867Z,23.23
2022-11-05T07:33:05.043Z,26.13
2022-11-05T07:35:32.071Z,25.77
2022-11-05T07:37:59.446Z,23.60
2022-11-05T07:40:27.531Z,21.80
2022-11-05T07:42:55.651Z,25.10
2022-11-05T07:45:23.408Z,23.30
2022-11-05T07:47:54.724Z,22.83
2022-11-05T07:50:22.628Z,23.97
2022-11-05T07:52:49.832Z,20.50
2022-11-05T07:55:17.325Z,22.40
2022-11-05T07:57:44.832Z,19.60
2022-11-05T08:00:13.997Z,21.33
2022-11-05T08:02:41.439Z,23.13
2022-11-05T08:05:09.167Z,17.97
2022-11-05T08:07:36.335Z,14.57
2022-11-05T08:10:04.209Z,12.97
2022-11-05T08:12:32.685Z,10.97
2022-11-05T08:14:59.717Z,12.65
2022-11-05T08:17:26.764Z,13.00
2022-11-05T08:19:53.746Z,10.87
2022-11-05T08:22:20.741Z,10.17
2022-11-05T08:24:47.827Z,9.03
2022-11-05T08:27:14.796Z,8.30
2022-11-05T08:29:41.785Z,9.90
2022-11-05T08:32:08.758Z,7.10
2022-11-05T08:34:35.741Z,9.30
2022-11-05T08:37:03.044Z,7.07
2022-11-05T08:39:30.099Z,9.90
2022-11-05T08:41:57.082Z,8.30
2022-11-05T08:44:24.153Z,8.20
2022-11-05T08:46:51.186Z,7.60
2022-11-05T08:49:18.153Z,9.33
2022-11-05T08:51:45.538Z,6.47
2022-11-05T08:54:13.232Z,8.13
2022-11-05T08:56:40.531Z,8.47
2022-11-05T08:59:07.617Z,7.70
2022-11-05T09:01:34.995Z,9.70
2022-11-05T09:04:02.106Z,10.10
2022-11-05T09:06:29.246Z,9.03
2022-11-05T09:08:56.466Z,10.70
2022-11-05T09:11:33.162Z,9.70
2022-11-05T09:14:10.587Z,9.27
2022-11-05T09:16:37.592Z,10.90
2022-11-05T09:19:05.009Z,11.97
2022-11-05T09:21:32.227Z,10.60
2022-11-05T09:23:59.296Z,14.00
2022-11-05T09:26:27.041Z,13.27
2022-11-05T09:28:54.068Z,12.30
2022-11-05T09:31:21.043Z,13.53
2022-11-05T09:33:48.025Z,14.10
2022-11-05T09:36:15.857Z,13.03
2022-11-05T09:38:42.847Z,12.30
2022-11-05T09:41:15.492Z,14.87
2022-11-05T09:43:44.100Z,16.97
2022-11-05T09:46:17.941Z,16.37
2022-11-05T09:48:46.338Z,17.53
2022-11-05T09:51:20.730Z,16.63
2022-11-05T09:53:51.303Z,17.00
2022-11-05T09:56:23.848Z,17.80
2022-11-05T09:58:53.701Z,17.23
2022-11-05T10:01:26.139Z,14.87
2022-11-05T10:03:55.154Z,15.30
2022-11-05T10:06:23.536Z,17.40
2022-11-05T10:08:53.390Z,15.20
2022-11-05T10:11:22.658Z,14.53
2022-11-05T10:13:53.133Z,14.30
2022-11-05T10:16:25.497Z,13.07
2022-11-05T10:18:59.600Z,11.67
2022-11-05T10:21:51.353Z,13.87
2022-11-05T10:24:18.601Z,12.77
2022-11-05T10:26:50.419Z,14.47
2022-11-05T10:29:22.753Z,13.53
2022-11-05T10:31:50.020Z,12.87
2022-11-05T10:34:17.784Z,12.57
2022-11-05T10:36:44.798Z,12.93
2022-11-05T10:39:16.288Z,11.37
2022-11-05T10:41:52.514Z,11.37
2022-11-05T10:44:22.655Z,10.27
2022-11-05T10:46:55.944Z,10.60
2022-11-05T10:49:22.929Z,10.57
2022-11-05T10:51:54.171Z,9.23
2022-11-05T10:54:22.472Z,10.00
2022-11-05T10:56:49.832Z,9.67
2022-11-05T10:59:35.055Z,9.30
2022-11-05T11:02:04.905Z,12.50
2022-11-05T11:04:37.478Z,12.27
2022-11-05T11:07:05.516Z,10.30
2022-11-05T11:09:33.937Z,11.67
2022-11-05T11:12:02.896Z,13.93
2022-11-05T11:14:30.509Z,14.43
2022-11-05T11:17:15.996Z,14.07
2022-11-05T11:19:42.989Z,13.90
2022-11-05T11:22:10.827Z,13.83
2022-11-05T11:24:39.769Z,12.63
2022-11-05T11:27:27.442Z,12.67
2022-11-05T11:30:05.346Z,13.47
2022-11-05T11:32:38.163Z,13.05
2022-11-05T11:35:07.093Z,12.90
2022-11-05T11:37:35.566Z,15.77
2022-11-05T11:40:13.533Z,12.73
2022-11-05T11:42:41.505Z,14.30
2022-11-05T11:45:15.769Z,9.60
2022-11-05T11:47:47.500Z,12.93
2022-11-05T11:50:33.207Z,12.07
2022-11-05T11:53:19.069Z,12.77
2022-11-05T11:55:58.256Z,10.93
2022-11-05T11:58:35.982Z,11.87
2022-11-05T12:01:18.030Z,9.83
2022-11-05T12:04:00.101Z,9.43
2022-11-05T12:06:35.060Z,8.87
2022-11-05T12:09:06.978Z,8.43
2022-11-05T12:11:36.933Z,9.80
2022-11-05T12:14:19.125Z,9.40
2022-11-05T12:16:53.373Z,9.73
2022-11-05T12:19:29.434Z,7.57
2022-11-05T12:22:05.630Z,7.80
2022-11-05T12:24:32.586Z,6.87
2022-11-05T12:27:11.232Z,8.90
2022-11-05T12:29:43.809Z,7.50
2022-11-05T12:32:26.204Z,7.33
2022-11-05T12:35:13.478Z,8.73
2022-11-05T12:37:40.429Z,9.57
2022-11-05T12:40:13.223Z,6.80
2022-11-05T12:42:49.131Z,9.03
2022-11-05T12:45:23.164Z,8.70
2022-11-05T12:47:56.977Z,8.07
2022-11-05T12:50:42.584Z,10.87
2022-11-05T12:53:33.533Z,10.40
2022-11-05T12:56:02.315Z,7.00
2022-11-05T12:58:34.429Z,8.47
2022-11-05T13:01:04.517Z,9.60
2022-11-05T13:03:38.133Z,7.13
2022-11-05T13:06:16.515Z,8.63
2022-11-05T13:08:53.588Z,7.17
2022-11-05T13:11:22.996Z,5.97
2022-11-05T13:13:53.037Z,6.33
2022-11-05T13:16:26.520Z,6.53
2022-11-05T13:19:00.021Z,7.67
2022-11-05T13:21:28.936Z,7.93
2022-11-05T13:24:02.285Z,6.27
2022-11-05T13:26:35.153Z,5.23
2022-11-05T13:29:08.334Z,11.57
2022-11-05T13:31:44.011Z,12.00
2022-11-05T13:34:12.416Z,6.10
2022-11-05T13:37:05.591Z,7.50
2022-11-05T13:39:36.318Z,8.37
2022-11-05T13:42:03.263Z,6.43
2022-11-05T13:44:33.085Z,8.60
2022-11-05T13:47:12.226Z,6.80
2022-11-05T13:49:52.490Z,9.87
2022-11-05T13:52:22.587Z,8.43
2022-11-05T13:55:06.702Z,6.90
2022-11-05T13:57:39.781Z,6.80
2022-11-05T14:00:23.861Z,6.07
2022-11-05T14:03:02.169Z,7.60
2022-11-05T14:05:31.225Z,8.47
2022-11-05T14:08:00.057Z,10.57
2022-11-05T14:10:38.254Z,7.60
2022-11-05T14:13:17.553Z,11.47
2022-11-05T14:16:23.056Z,7.27
2022-11-05T14:18:54.852Z,9.23
2022-11-05T14:21:27.631Z,9.33
2022-11-05T14:23:58.452Z,9.13
2022-11-05T14:26:29.985Z,8.07
2022-11-05T14:29:06.007Z,10.10
2022-11-05T14:32:02.522Z,8.07
2022-11-05T14:34:21.869Z,7.63
2022-11-05T14:37:07.597Z,9.53
2022-11-05T14:39:34.600Z,7.80
2022-11-05T14:42:23.310Z,9.23
2022-11-05T14:44:58.137Z,9.93
2022-11-05T14:47:26.792Z,9.40
2022-11-05T14:49:55.842Z,10.03
2022-11-05T14:52:22.838Z,8.93
2022-11-05T14:54:51.743Z,9.80
2022-11-05T14:57:38.927Z,8.87
2022-11-05T15:00:06.924Z,9.13
2022-11-05T15:02:38.232Z,10.83
2022-11-05T15:05:24.105Z,12.23
2022-11-05T15:07:56.507Z,10.60
2022-11-05T15:10:23.761Z,7.87
2022-11-05T15:12:57.189Z,11.10
2022-11-05T15:15:27.519Z,12.37
2022-11-05T15:18:13.723Z,5.80
2022-11-05T15:20:43.954Z,10.47
2022-11-05T15:23:13.536Z,7.87
2022-11-05T15:25:53.622Z,8.17
2022-11-05T15:28:37.880Z,7.72
2022-11-05T15:31:06.537Z,8.13
2022-11-05T15:33:33.603Z,7.30
2022-11-05T15:36:15.975Z,6.33
2022-11-05T15:38:56.586Z,8.43
2022-11-05T15:41:33.620Z,8.90
2022-11-05T15:44:02.854Z,9.93
2022-11-05T15:46:30.047Z,9.30
2022-11-05T15:49:08.468Z,8.27
2022-11-05T15:51:36.046Z,11.03
2022-11-05T15:54:28.959Z,10.63
2022-11-05T15:56:55.129Z,6.90
2022-11-05T15:59:23.452Z,7.87
2022-11-05T16:01:52.853Z,8.20
2022-11-05T16:04:19.899Z,10.20
2022-11-05T16:06:48.379Z,10.18
2022-11-05T16:09:21.199Z,8.60
2022-11-05T16:11:48.183Z,7.27
2022-11-05T16:14:17.182Z,6.80
2022-11-05T16:16:44.539Z,11.13
2022-11-05T16:19:33.235Z,7.63
2022-11-05T16:22:05.834Z,9.83
2022-11-05T16:24:32.917Z,8.73
2022-11-05T16:27:03.745Z,11.73
2022-11-05T16:29:41.792Z,9.50
2022-11-05T16:32:29.821Z,13.90
2022-11-05T16:34:59.705Z,10.83
2022-11-05T16:37:27.682Z,10.47
2022-11-05T16:39:54.948Z,10.83
2022-11-05T16:42:25.886Z,8.93
2022-11-05T16:44:53.695Z,11.40
2022-11-05T16:47:21.008Z,9.17
2022-11-05T16:49:48.742Z,9.50
2022-11-05T16:52:15.751Z,8.90
2022-11-05T16:54:43.125Z,9.40
2022-11-05T16:57:27.798Z,9.60
2022-11-05T16:59:55.368Z,12.27
2022-11-05T17:02:22.501Z,15.17
2022-11-05T17:04:49.709Z,19.20
2022-11-05T17:07:16.805Z,25.43
2022-11-05T17:09:43.901Z,14.63
2022-11-05T17:12:13.955Z,19.17
2022-11-05T17:14:40.957Z,17.37
2022-11-05T17:17:07.960Z,17.10
2022-11-05T17:19:35.011Z,21.40
2022-11-05T17:22:02.045Z,17.57
2022-11-05T17:24:29.024Z,23.67
2022-11-05T17:26:55.981Z,24.38
2022-11-05T17:29:22.966Z,19.43
2022-11-05T17:31:49.961Z,16.40
2022-11-05T17:34:17.531Z,17.93
2022-11-05T17:36:44.562Z,20.30
2022-11-05T17:39:12.652Z,18.50
2022-11-05T17:41:39.673Z,23.43
2022-11-05T17:44:06.650Z,20.43
2022-11-05T17:46:33.654Z,20.27
2022-11-05T17:49:00.676Z,17.40
2022-11-05T17:51:27.671Z,16.43
2022-11-05T17:53:54.723Z,22.20
2022-11-05T17:56:32.498Z,21.33
2022-11-05T17:59:01.941Z,22.73
2022-11-05T18:01:30.317Z,21.10
2022-11-05T18:03:57.410Z,22.80
2022-11-05T18:06:24.419Z,21.53
2022-11-05T18:08:51.411Z,20.50
2022-11-05T18:11:18.392Z,21.43
2022-11-05T18:13:45.437Z,21.63
2022-11-05T18:16:12.415Z,19.13
2022-11-05T18:18:39.402Z,21.43
2022-11-05T18:21:06.521Z,19.87
2022-11-05T18:23:33.578Z,21.53
2022-11-05T18:26:00.608Z,21.67
2022-11-05T18:28:30.045Z,21.80
2022-11-05T18:30:57.024Z,24.03
2022-11-05T18:33:24.076Z,21.73
2022-11-05T18:35:51.038Z,22.43
2022-11-05T18:38:18.370Z,21.90
2022-11-05T18:40:45.358Z,25.90
2022-11-05T18:43:12.651Z,20.13
2022-11-05T18:45:39.963Z,21.53
2022-11-05T18:48:07.142Z,20.80
2022-11-05T18:50:34.136Z,21.63
2022-11-05T18:53:01.100Z,21.23
2022-11-05T18:55:28.073Z,19.90
2022-11-05T18:57:55.076Z,23.07
2022-11-05T19:00:22.250Z,24.37
2022-11-05T19:02:49.294Z,21.47
2022-11-05T19:05:31.927Z,20.40
2022-11-05T19:07:59.061Z,21.87
2022-11-05T19:10:26.095Z,19.50
2022-11-05T19:12:53.082Z,20.00
2022-11-05T19:15:20.052Z,22.53
2022-11-05T19:17:47.173Z,20.67
2022-11-05T19:20:14.168Z,23.10
2022-11-05T19:22:41.152Z,24.73
2022-11-05T19:25:08.377Z,19.53
2022-11-05T19:27:37.387Z,17.13
2022-11-05T19:30:05.213Z,18.37
2022-11-05T19:32:32.282Z,21.33
2022-11-05T19:34:59.247Z,20.80
2022-11-05T19:37:26.220Z,20.70
2022-11-05T19:39:53.200Z,20.93
2022-11-05T19:42:20.167Z,20.00
2022-11-05T19:44:47.148Z,17.23
2022-11-05T19:47:14.117Z,19.33
2022-11-05T19:49:41.134Z,25.77
2022-11-05T19:52:08.098Z,17.50
2022-11-05T19:54:35.887Z,19.67
2022-11-05T19:57:02.944Z,26.47
2022-11-05T19:59:30.009Z,20.23
2022-11-05T20:01:57.035Z,23.67
2022-11-05T20:04:24.053Z,22.33
2022-11-05T20:06:51.023Z,26.70
2022-11-05T20:09:22.963Z,28.80
2022-11-05T20:11:50.833Z,32.93
2022-11-05T20:14:17.958Z,25.53
2022-11-05T20:16:45.963Z,26.13
2022-11-05T20:19:18.391Z,27.77
2022-11-05T20:21:45.888Z,23.97
2022-11-05T20:24:15.246Z,22.70
2022-11-05T20:26:45.713Z,20.77
2022-11-05T20:29:12.921Z,22.33
2022-11-05T20:31:39.939Z,29.77
2022-11-05T20:34:06.965Z,18.67
2022-11-05T20:36:33.955Z,20.73
2022-11-05T20:39:02.712Z,19.03
2022-11-05T20:41:30.604Z,19.93
2022-11-05T20:43:57.713Z,23.65
2022-11-05T20:46:25.090Z,20.07
2022-11-05T20:48:52.496Z,22.13
2022-11-05T20:51:21.697Z,29.37
2022-11-05T20:53:49.198Z,27.53
2022-11-05T20:56:17.674Z,27.23
2022-11-05T20:58:44.673Z,27.17
2022-11-05T21:01:12.671Z,24.53
2022-11-05T21:03:40.256Z,25.10
2022-11-05T21:06:07.590Z,25.27
2022-11-05T21:08:34.885Z,23.17
2022-11-05T21:11:02.397Z,27.37
2022-11-05T21:13:29.527Z,26.27
2022-11-05T21:15:57.552Z,21.40
2022-11-05T21:18:29.490Z,22.17
2022-11-05T21:20:56.790Z,25.90
2022-11-05T21:23:24.137Z,24.43
2022-11-05T21:25:51.360Z,22.17
2022-11-05T21:28:18.363Z,24.27
2022-11-05T21:30:46.313Z,22.17
2022-11-05T21:33:14.358Z,24.70
2022-11-05T21:35:43.797Z,18.07
2022-11-05T21:38:11.806Z,20.60
2022-11-05T21:40:39.030Z,19.23
2022-11-05T21:43:06.324Z,20.10
2022-11-05T21:45:33.673Z,18.43
2022-11-05T21:48:00.726Z,21.20
2022-11-05T21:50:46.488Z,19.00
2022-11-05T21:53:33.032Z,21.23
2022-11-05T21:56:18.868Z,23.43
2022-11-05T21:59:04.773Z,19.80
2022-11-05T22:01:31.867Z,22.57
2022-11-05T22:04:02.857Z,22.35
2022-11-05T22:06:32.479Z,20.97
2022-11-05T22:08:59.460Z,18.67
2022-11-05T22:11:26.450Z,20.43
2022-11-05T22:13:53.630Z,20.30
2022-11-05T22:16:20.689Z,17.93
2022-11-05T22:18:47.714Z,19.83
2022-11-05T22:21:18.798Z,20.13
2022-11-05T22:23:45.785Z,23.43
2022-11-05T22:26:12.858Z,28.53
2022-11-05T22:28:39.853Z,28.60
2022-11-05T22:31:12.305Z,24.07
2022-11-05T22:33:39.274Z,23.17
2022-11-05T22:36:06.466Z,20.63
2022-11-05T22:38:33.530Z,25.03
2022-11-05T22:41:00.652Z,23.30
2022-11-05T22:43:27.649Z,22.80
2022-11-05T22:45:54.654Z,25.53
2022-11-05T22:48:21.682Z,26.73
2022-11-05T22:50:48.674Z,25.07
2022-11-05T22:53:15.650Z,25.57
2022-11-05T22:55:42.600Z,26.97
2022-11-05T22:58:09.787Z,23.27
2022-11-05T23:00:37.788Z,22.70
2022-11-05T23:03:06.016Z,26.43
2022-11-05T23:05:33.104Z,24.97
2022-11-05T23:08:18.693Z,22.03
2022-11-05T23:11:04.448Z,20.87
2022-11-05T23:13:31.449Z,19.20
2022-11-05T23:16:17.012Z,19.17
2022-11-05T23:19:02.856Z,19.57
2022-11-05T23:21:48.789Z,19.80
2022-11-05T23:24:15.814Z,21.00
2022-11-05T23:26:51.976Z,24.33
2022-11-05T23:29:20.269Z,28.83
2022-11-05T23:32:06.016Z,25.13
2022-11-05T23:34:33.050Z,20.60
2022-11-05T23:37:18.789Z,20.80
2022-11-05T23:39:45.854Z,19.93
2022-11-05T23:42:31.744Z,22.30
2022-11-05T23:45:17.818Z,22.03
2022-11-05T23:48:03.696Z,16.27
2022-11-05T23:50:34.468Z,21.23
2022-11-05T23:53:05.487Z,16.93
2022-11-05T23:55:32.452Z,21.33
2022-11-05T23:57:59.421Z,14.30
